Time;durP1;ratioP1;P1;durP2;ratioP2;P2;SDS_P1;SDS_P2;PMS_P1;PMS_P2;Temp;Humidity;BMP_temperature;BMP_pressure;BME280_temperature;BME280_humidity;BME280_pressure;Samples;Min_cycle;Max_cycle;Signal;HPM_P1;HPM_P2
2023/01/12 00:02:02;;;;;;;20.77;16.40;;;5.40;99.90;;;;;;6271725;28;20462;-62
2023/01/12 00:05:10;;;;;;;20.20;16.53;;;5.40;99.90;;;;;;6275455;28;21161;-62
2023/01/12 00:08:14;;;;;;;25.23;16.40;;;5.40;99.90;;;;;;6274957;28;20481;-62
2023/01/12 00:11:18;;;;;;;19.07;15.67;;;5.30;99.90;;;;;;6277203;28;20804;-62
2023/01/12 00:14:21;;;;;;;24.97;16.60;;;5.30;99.90;;;;;;6277013;28;20490;-61
2023/01/12 00:17:24;;;;;;;24.80;18.03;;;5.30;99.90;;;;;;6276650;28;20512;-62
2023/01/12 00:20:29;;;;;;;16.30;14.50;;;5.30;99.90;;;;;;6276662;28;20922;-63
2023/01/12 00:23:32;;;;;;;24.10;14.20;;;5.30;99.90;;;;;;6273097;28;20978;-64
2023/01/12 00:26:35;;;;;;;20.90;15.00;;;5.40;99.90;;;;;;6269439;28;20471;-64
2023/01/12 00:29:39;;;;;;;25.40;16.77;;;5.50;99.90;;;;;;6264440;28;20480;-63
2023/01/12 00:32:42;;;;;;;19.40;14.10;;;5.50;99.90;;;;;;6264260;28;20755;-63
2023/01/12 00:35:47;;;;;;;23.33;14.77;;;5.50;99.90;;;;;;6267053;28;20478;-63
2023/01/12 00:38:50;;;;;;;18.43;14.30;;;5.50;99.90;;;;;;6264239;28;20479;-63
2023/01/12 00:45:23;;;;;;;19.77;14.87;;;5.60;99.90;;;;;;6264594;28;20493;-63
2023/01/12 00:48:27;;;;;;;18.23;14.83;;;5.60;99.90;;;;;;6262036;28;20474;-63
2023/01/12 00:51:31;;;;;;;19.13;15.43;;;5.70;99.90;;;;;;6262931;28;20477;-64
2023/01/12 00:54:35;;;;;;;23.03;15.67;;;5.70;99.90;;;;;;6263695;28;20464;-63
2023/01/12 00:57:39;;;;;;;22.77;16.30;;;5.70;99.90;;;;;;6261454;28;20474;-64
2023/01/12 01:00:42;;;;;;;21.70;15.83;;;5.60;99.90;;;;;;6262254;28;20470;-64
2023/01/12 01:03:45;;;;;;;21.80;17.00;;;5.70;99.90;;;;;;6252732;28;20471;-63
2023/01/12 01:06:50;;;;;;;26.20;15.60;;;5.70;99.90;;;;;;6241456;28;20489;-64
2023/01/12 01:09:53;;;;;;;24.83;14.97;;;5.70;99.90;;;;;;6250604;28;20483;-64
2023/01/12 01:12:57;;;;;;;22.80;15.73;;;5.60;99.90;;;;;;6250712;28;21004;-64
2023/01/12 01:16:01;;;;;;;21.40;14.50;;;5.60;99.90;;;;;;6257581;28;20573;-64
2023/01/12 01:19:04;;;;;;;23.93;15.40;;;5.70;99.90;;;;;;6262280;28;20793;-63
2023/01/12 01:22:09;;;;;;;23.17;15.80;;;5.70;99.90;;;;;;6261791;28;20483;-64
2023/01/12 01:25:12;;;;;;;19.70;15.30;;;5.70;99.90;;;;;;6261230;28;20957;-64
2023/01/12 01:28:16;;;;;;;19.40;14.17;;;5.70;99.90;;;;;;6262074;28;20963;-64
2023/01/12 01:31:21;;;;;;;17.20;13.00;;;5.60;99.90;;;;;;6262481;28;20466;-63
2023/01/12 01:34:25;;;;;;;17.47;13.57;;;5.70;99.90;;;;;;6264146;28;20840;-63
2023/01/12 01:37:30;;;;;;;18.00;13.67;;;5.70;99.90;;;;;;6261951;28;20509;-64
2023/01/12 01:40:33;;;;;;;19.10;12.90;;;5.60;99.90;;;;;;6254898;28;20778;-63
2023/01/12 01:43:58;;;;;;;17.47;13.33;;;5.70;99.90;;;;;;6250707;28;20443;-63
2023/01/12 01:47:05;;;;;;;16.27;13.80;;;5.60;99.90;;;;;;6250753;28;20878;-63
2023/01/12 01:50:17;;;;;;;17.20;12.77;;;5.60;99.90;;;;;;6250859;28;20493;-63
2023/01/12 01:53:24;;;;;;;18.20;13.37;;;5.60;99.90;;;;;;6250386;28;20471;-63
2023/01/12 01:56:32;;;;;;;16.40;12.70;;;5.60;99.90;;;;;;6250572;28;20486;-65
2023/01/12 01:59:39;;;;;;;16.90;12.33;;;5.70;99.90;;;;;;6249995;28;20479;-64
2023/01/12 02:02:44;;;;;;;17.57;12.87;;;5.60;99.90;;;;;;6250137;28;20510;-63
2023/01/12 02:05:49;;;;;;;21.10;14.03;;;5.60;99.90;;;;;;6250031;28;20944;-64
2023/01/12 02:08:57;;;;;;;15.67;12.80;;;5.60;99.90;;;;;;6241210;28;20482;-63
2023/01/12 02:19:19;;;;;;;14.17;11.87;;;5.60;99.90;;;;;;6225044;28;20479;-64
2023/01/12 02:22:57;;;;;;;15.47;12.13;;;5.50;99.90;;;;;;6248521;28;20479;-64
2023/01/12 02:26:35;;;;;;;15.40;12.13;;;5.60;99.90;;;;;;6244147;28;20532;-65
2023/01/12 02:30:13;;;;;;;15.33;12.87;;;5.60;99.90;;;;;;6297921;28;20560;-64
2023/01/12 02:33:33;;;;;;;20.20;13.27;;;5.60;99.90;;;;;;6298407;28;20483;-65
2023/01/12 02:36:53;;;;;;;14.30;10.73;;;5.60;99.90;;;;;;6293157;28;20478;-64
2023/01/12 02:40:02;;;;;;;15.73;12.70;;;5.60;99.90;;;;;;6273871;28;20482;-64
2023/01/12 02:43:13;;;;;;;17.77;11.77;;;5.60;99.90;;;;;;6274173;28;20573;-64
2023/01/12 02:46:22;;;;;;;15.33;11.73;;;5.60;99.90;;;;;;6274389;28;20472;-64
2023/01/12 02:49:33;;;;;;;14.67;11.63;;;5.60;99.90;;;;;;6273811;28;20816;-64
2023/01/12 02:52:38;;;;;;;14.83;10.70;;;5.60;99.90;;;;;;6274344;28;20454;-64
2023/01/12 02:55:42;;;;;;;12.03;9.97;;;5.60;99.90;;;;;;6274810;28;20491;-64
2023/01/12 02:58:50;;;;;;;12.20;9.97;;;5.60;99.90;;;;;;6273759;28;20484;-64
2023/01/12 03:02:00;;;;;;;18.33;10.40;;;5.60;99.90;;;;;;6273649;28;20470;-64
2023/01/12 03:05:07;;;;;;;13.70;9.97;;;5.60;99.90;;;;;;6274024;28;20813;-64
2023/01/12 03:08:13;;;;;;;10.30;9.17;;;5.60;99.90;;;;;;6274190;28;20474;-64
2023/01/12 03:11:19;;;;;;;14.33;9.37;;;5.60;99.90;;;;;;6269464;28;20476;-64
2023/01/12 03:14:23;;;;;;;12.57;9.80;;;5.70;99.90;;;;;;6273347;28;20470;-64
2023/01/12 03:17:33;;;;;;;16.53;11.40;;;5.70;99.90;;;;;;6273586;28;20477;-64
2023/01/12 03:20:41;;;;;;;14.07;10.33;;;5.70;99.90;;;;;;6273963;28;20470;-64
2023/01/12 03:23:48;;;;;;;19.47;11.60;;;5.60;99.90;;;;;;6274113;28;20474;-64
2023/01/12 03:26:55;;;;;;;16.03;11.17;;;5.70;99.90;;;;;;6292521;28;21005;-64
2023/01/12 03:30:02;;;;;;;11.87;10.20;;;5.60;99.90;;;;;;6303274;28;20477;-64
2023/01/12 03:33:06;;;;;;;11.60;9.50;;;5.60;99.90;;;;;;6302045;28;20957;-64
2023/01/12 03:36:19;;;;;;;10.90;9.60;;;5.50;99.90;;;;;;6303808;28;20542;-64
2023/01/12 03:39:27;;;;;;;16.30;10.07;;;5.60;99.90;;;;;;6256481;28;20471;-64
2023/01/12 03:42:38;;;;;;;13.47;9.70;;;5.50;99.90;;;;;;6253707;28;20463;-64
2023/01/12 03:45:48;;;;;;;11.30;9.67;;;5.50;99.90;;;;;;6251730;28;20474;-64
2023/01/12 03:48:54;;;;;;;9.73;8.67;;;5.50;99.90;;;;;;6251794;28;20479;-64
2023/01/12 03:52:01;;;;;;;11.20;9.90;;;5.50;99.90;;;;;;6252838;28;20470;-64
2023/01/12 03:55:08;;;;;;;10.37;9.20;;;5.40;99.90;;;;;;6252628;28;20479;-64
2023/01/12 03:58:11;;;;;;;12.80;10.80;;;5.40;99.90;;;;;;6252555;28;20483;-64
2023/01/12 04:01:15;;;;;;;11.43;9.83;;;5.40;99.90;;;;;;6252662;28;20799;-64
2023/01/12 04:04:19;;;;;;;15.27;10.60;;;5.50;99.90;;;;;;6252885;28;20475;-64
2023/01/12 04:07:23;;;;;;;15.00;12.10;;;5.40;99.90;;;;;;6252613;28;20475;-64
2023/01/12 04:10:27;;;;;;;12.67;11.07;;;5.40;99.90;;;;;;6252513;28;20537;-64
2023/01/12 04:13:30;;;;;;;14.40;12.70;;;5.30;99.90;;;;;;6253046;28;20498;-64
2023/01/12 04:16:34;;;;;;;14.90;12.33;;;5.30;99.90;;;;;;6248994;28;20483;-64
2023/01/12 04:19:37;;;;;;;14.47;11.50;;;5.30;99.90;;;;;;6252679;28;20557;-64
2023/01/12 04:22:42;;;;;;;16.67;12.33;;;5.30;99.90;;;;;;6252441;28;20443;-64
2023/01/12 04:25:45;;;;;;;17.70;12.73;;;5.30;99.90;;;;;;6268919;28;20956;-64
2023/01/12 04:28:49;;;;;;;17.00;12.37;;;5.30;99.90;;;;;;6301659;28;20457;-64
2023/01/12 04:31:52;;;;;;;19.03;13.77;;;5.30;99.90;;;;;;6302048;28;20755;-64
2023/01/12 04:34:56;;;;;;;22.93;14.60;;;5.30;99.90;;;;;;6302338;28;20484;-64
2023/01/12 04:38:06;;;;;;;17.03;12.67;;;5.30;99.90;;;;;;6286781;28;20466;-64
2023/01/12 04:41:09;;;;;;;15.30;13.30;;;5.20;99.90;;;;;;6277373;28;20477;-64
2023/01/12 04:44:12;;;;;;;15.60;12.57;;;5.30;99.90;;;;;;6276719;28;20470;-64
2023/01/12 04:47:16;;;;;;;16.80;14.00;;;5.30;99.90;;;;;;6276728;28;20474;-64
2023/01/12 04:50:19;;;;;;;15.93;13.17;;;5.30;99.90;;;;;;6276607;28;20624;-64
2023/01/12 04:53:25;;;;;;;17.63;12.77;;;5.20;99.90;;;;;;6276782;28;20469;-64
2023/01/12 04:56:28;;;;;;;16.20;12.30;;;5.20;99.90;;;;;;6276624;28;20962;-64
2023/01/12 04:59:31;;;;;;;17.93;13.17;;;5.30;99.90;;;;;;6276276;28;20482;-64
2023/01/12 05:02:35;;;;;;;18.90;13.30;;;5.30;99.90;;;;;;6275938;28;20474;-64
2023/01/12 05:05:38;;;;;;;14.93;12.43;;;5.30;99.90;;;;;;6276214;28;20977;-64
2023/01/12 05:12:04;;;;;;;39.40;20.07;;;5.30;99.90;;;;;;6276464;28;20475;-64
2023/01/12 05:15:08;;;;;;;18.13;14.40;;;5.30;99.90;;;;;;6275505;28;20545;-64
2023/01/12 05:18:11;;;;;;;17.70;13.23;;;5.40;99.90;;;;;;6275509;28;20474;-66
2023/01/12 05:21:16;;;;;;;19.87;14.60;;;5.30;99.90;;;;;;6275288;28;20474;-64
2023/01/12 05:24:21;;;;;;;16.07;13.77;;;5.30;99.90;;;;;;6275792;28;20470;-64
2023/01/12 05:27:25;;;;;;;13.30;12.00;;;5.20;99.90;;;;;;6297582;28;20934;-64
2023/01/12 05:30:29;;;;;;;20.40;13.30;;;5.20;99.90;;;;;;6300252;28;20948;-64
2023/01/12 05:33:34;;;;;;;16.83;13.67;;;5.20;99.90;;;;;;6300244;28;20465;-64
2023/01/12 05:36:37;;;;;;;14.50;12.53;;;5.20;99.90;;;;;;6297432;28;20956;-64
2023/01/12 05:39:42;;;;;;;14.20;11.83;;;5.20;99.90;;;;;;6275661;28;20474;-64
2023/01/12 05:46:07;;;;;;;13.20;10.67;;;5.20;99.90;;;;;;6275195;28;20790;-64
2023/01/12 05:49:10;;;;;;;14.00;8.70;;;5.20;99.90;;;;;;6274496;28;20510;-64
2023/01/12 05:52:14;;;;;;;12.97;9.60;;;5.10;99.90;;;;;;6275822;28;20485;-64
2023/01/12 05:55:19;;;;;;;11.80;9.30;;;5.00;99.90;;;;;;6276329;28;20474;-64
2023/01/12 05:58:22;;;;;;;11.23;9.50;;;5.00;99.90;;;;;;6274859;28;21004;-64
2023/01/12 06:01:26;;;;;;;9.60;8.63;;;5.00;99.90;;;;;;6274256;28;20977;-65
2023/01/12 06:04:30;;;;;;;9.20;8.33;;;5.00;99.90;;;;;;6274580;28;20865;-64
2023/01/12 06:07:33;;;;;;;9.17;8.17;;;5.00;99.90;;;;;;6273700;28;20470;-64
2023/01/12 06:10:39;;;;;;;10.50;8.20;;;5.10;99.90;;;;;;6274315;28;20756;-64
2023/01/12 06:13:57;;;;;;;12.63;9.00;;;5.10;99.90;;;;;;6274235;28;20435;-64
2023/01/12 06:17:00;;;;;;;9.10;7.70;;;5.10;99.90;;;;;;6274321;28;20508;-64
2023/01/12 06:20:04;;;;;;;9.80;8.33;;;5.10;99.90;;;;;;6274179;28;20480;-64
2023/01/12 06:23:09;;;;;;;12.33;9.30;;;5.10;99.90;;;;;;6265567;28;20946;-64
2023/01/12 06:26:14;;;;;;;12.43;9.30;;;5.00;99.90;;;;;;6286216;28;20488;-64
2023/01/12 06:29:17;;;;;;;12.83;9.03;;;5.00;99.90;;;;;;6298803;28;20480;-65
2023/01/12 06:32:20;;;;;;;9.00;8.00;;;4.90;99.90;;;;;;6299684;28;20469;-64
2023/01/12 06:35:24;;;;;;;9.33;8.33;;;4.90;99.90;;;;;;6299127;28;20602;-64
2023/01/12 06:38:30;;;;;;;10.43;8.40;;;4.90;99.90;;;;;;6290594;28;20790;-64
2023/01/12 06:44:56;;;;;;;10.90;9.57;;;4.90;99.90;;;;;;6274233;28;20477;-64
2023/01/12 06:47:59;;;;;;;9.97;9.07;;;4.90;99.90;;;;;;6273977;28;20481;-64
2023/01/12 06:51:03;;;;;;;13.10;10.17;;;4.90;99.90;;;;;;6274081;28;20466;-64
2023/01/12 06:54:07;;;;;;;35.33;19.33;;;4.80;99.90;;;;;;6274084;28;20979;-64
2023/01/12 06:57:12;;;;;;;13.20;11.23;;;4.80;99.90;;;;;;6273853;28;20477;-64
2023/01/12 07:00:15;;;;;;;14.90;10.70;;;4.80;99.90;;;;;;6272440;28;20474;-64
2023/01/12 07:03:20;;;;;;;14.30;11.73;;;4.80;99.90;;;;;;6276843;28;20484;-64
2023/01/12 07:06:24;;;;;;;15.67;11.07;;;4.70;99.90;;;;;;6277582;28;20484;-64
2023/01/12 07:09:27;;;;;;;12.17;10.50;;;4.80;99.90;;;;;;6278344;28;20478;-64
2023/01/12 07:12:32;;;;;;;14.70;9.80;;;4.80;99.90;;;;;;6278520;28;20477;-64
2023/01/12 07:15:35;;;;;;;12.60;11.27;;;4.70;99.90;;;;;;6280139;28;20581;-64
2023/01/12 07:18:39;;;;;;;13.57;9.77;;;4.60;99.90;;;;;;6279103;28;20504;-64
2023/01/12 07:21:43;;;;;;;15.10;10.43;;;4.60;99.90;;;;;;6278430;28;20762;-64
2023/01/12 07:24:46;;;;;;;11.73;8.83;;;4.60;99.90;;;;;;6278793;28;20489;-64
2023/01/12 07:27:52;;;;;;;9.97;9.00;;;4.60;99.90;;;;;;6303415;28;20554;-64
2023/01/12 07:31:01;;;;;;;10.20;8.60;;;4.70;99.90;;;;;;6303582;28;20531;-64
2023/01/12 07:34:04;;;;;;;14.23;9.17;;;4.70;99.90;;;;;;6303167;28;20534;-64
2023/01/12 07:37:08;;;;;;;12.50;9.17;;;4.70;99.90;;;;;;6302834;28;20473;-64
2023/01/12 07:40:12;;;;;;;11.17;9.23;;;4.60;99.90;;;;;;6280250;28;20466;-64
2023/01/12 07:43:18;;;;;;;10.60;9.50;;;4.60;99.90;;;;;;6278316;28;20488;-64
2023/01/12 07:46:21;;;;;;;12.10;10.43;;;4.70;99.90;;;;;;6278083;28;20549;-64
2023/01/12 07:49:24;;;;;;;13.23;9.87;;;4.80;99.90;;;;;;6277840;28;20480;-64
2023/01/12 07:52:27;;;;;;;13.17;9.00;;;4.90;99.90;;;;;;6277727;28;20470;-64
2023/01/12 07:55:31;;;;;;;10.33;8.77;;;5.10;99.90;;;;;;6277556;28;20479;-64
2023/01/12 07:58:36;;;;;;;11.73;9.27;;;5.20;99.90;;;;;;6277707;28;20490;-64
2023/01/12 08:01:40;;;;;;;10.80;8.67;;;5.20;99.90;;;;;;6277547;28;20910;-64
2023/01/12 08:04:43;;;;;;;12.53;8.63;;;5.20;99.90;;;;;;6277727;28;20457;-64
2023/01/12 08:07:47;;;;;;;10.03;8.97;;;5.20;99.90;;;;;;6277635;28;20466;-64
2023/01/12 08:10:50;;;;;;;13.20;9.23;;;5.20;99.90;;;;;;6277487;28;20454;-65
2023/01/12 08:13:56;;;;;;;13.93;9.83;;;5.30;99.90;;;;;;6277701;28;20445;-65
2023/01/12 08:17:01;;;;;;;13.57;9.00;;;5.20;99.90;;;;;;6266233;28;20470;-65
2023/01/12 08:20:11;;;;;;;13.50;9.33;;;5.20;99.90;;;;;;6269405;28;20485;-63
2023/01/12 08:23:20;;;;;;;11.10;9.00;;;5.30;99.90;;;;;;6270831;28;20942;-65
2023/01/12 08:26:28;;;;;;;14.43;9.47;;;5.30;99.90;;;;;;6268083;28;20463;-65
2023/01/12 08:29:39;;;;;;;12.73;9.43;;;5.30;99.90;;;;;;6265180;28;20917;-65
2023/01/12 08:32:43;;;;;;;10.43;9.33;;;5.30;99.90;;;;;;6265420;28;20477;-65
2023/01/12 08:35:47;;;;;;;12.30;8.93;;;5.40;99.90;;;;;;6264339;28;20818;-65
2023/01/12 08:38:51;;;;;;;13.43;8.50;;;5.50;99.90;;;;;;6264363;28;20653;-65
2023/01/12 08:41:54;;;;;;;9.70;8.70;;;5.60;99.90;;;;;;6267938;28;20477;-65
2023/01/12 08:44:59;;;;;;;11.17;8.53;;;5.70;99.90;;;;;;6263075;28;20466;-65
2023/01/12 08:48:03;;;;;;;10.20;8.37;;;5.80;99.90;;;;;;6251651;28;20983;-65
2023/01/12 08:51:08;;;;;;;15.50;12.77;;;5.90;99.90;;;;;;6251668;28;21000;-65
2023/01/12 08:54:13;;;;;;;18.00;14.27;;;5.90;99.90;;;;;;6252392;28;20487;-66
2023/01/12 08:57:18;;;;;;;19.57;12.67;;;5.90;99.90;;;;;;6251880;28;20475;-66
2023/01/12 09:00:23;;;;;;;16.87;13.07;;;6.00;99.90;;;;;;6251344;28;20498;-66
2023/01/12 09:03:26;;;;;;;17.73;12.70;;;6.10;99.90;;;;;;6251770;28;20812;-65
2023/01/12 09:06:31;;;;;;;14.57;13.10;;;6.20;99.90;;;;;;6251770;28;20463;-67
2023/01/12 09:09:34;;;;;;;17.20;14.73;;;6.20;99.90;;;;;;6251137;28;20486;-66
2023/01/12 09:12:38;;;;;;;20.27;15.00;;;6.30;99.90;;;;;;6251434;28;20482;-65
2023/01/12 09:15:42;;;;;;;18.57;15.90;;;6.40;99.90;;;;;;6251146;28;20482;-65
2023/01/12 09:19:03;;;;;;;19.27;14.50;;;6.50;99.90;;;;;;6251119;28;20613;-64
2023/01/12 09:22:06;;;;;;;17.27;15.50;;;6.60;99.90;;;;;;6251168;28;20789;-66
2023/01/12 09:25:10;;;;;;;18.13;15.23;;;6.80;99.90;;;;;;6257122;28;20469;-65
2023/01/12 09:28:13;;;;;;;17.17;15.33;;;6.90;99.90;;;;;;6300582;28;20478;-66
2023/01/12 09:31:21;;;;;;;18.37;15.83;;;7.10;99.90;;;;;;6300652;28;20469;-64
2023/01/12 09:34:24;;;;;;;16.10;14.50;;;7.30;99.90;;;;;;6300299;28;20952;-64
2023/01/12 09:37:28;;;;;;;19.83;14.67;;;7.60;99.90;;;;;;6285469;28;20560;-64
2023/01/12 09:40:32;;;;;;;17.80;15.07;;;7.90;99.90;;;;;;6274702;28;20497;-64
2023/01/12 09:47:18;;;;;;;22.57;15.30;;;8.50;99.90;;;;;;6223302;28;20468;-65
2023/01/12 09:50:26;;;;;;;20.63;13.77;;;8.60;99.90;;;;;;6275024;28;20493;-64
2023/01/12 09:53:35;;;;;;;17.40;13.50;;;8.60;99.90;;;;;;6274696;28;20470;-64
2023/01/12 09:56:50;;;;;;;16.03;13.60;;;8.80;99.90;;;;;;6274641;28;20857;-65
2023/01/12 10:00:01;;;;;;;18.67;14.67;;;9.00;99.90;;;;;;6274791;28;20471;-64
2023/01/12 10:03:14;;;;;;;17.23;14.47;;;9.10;99.90;;;;;;6274806;28;20555;-64
2023/01/12 10:06:19;;;;;;;18.40;15.90;;;9.40;99.90;;;;;;6274893;28;20953;-64
2023/01/12 10:09:23;;;;;;;21.53;16.57;;;9.70;99.90;;;;;;6274494;28;20504;-64
2023/01/12 10:12:34;;;;;;;20.03;15.10;;;10.00;99.90;;;;;;6274892;28;20560;-64
2023/01/12 10:15:46;;;;;;;17.20;15.47;;;10.30;99.90;;;;;;6274707;28;20467;-64
2023/01/12 10:18:53;;;;;;;17.50;14.23;;;10.60;99.90;;;;;;6274466;28;20501;-65
2023/01/12 10:21:57;;;;;;;24.37;15.27;;;10.70;99.70;;;;;;6274557;28;20484;-64
2023/01/12 10:25:00;;;;;;;18.67;15.87;;;10.90;99.10;;;;;;6273848;28;20474;-65
2023/01/12 10:28:11;;;;;;;15.90;13.53;;;11.00;98.90;;;;;;6271049;28;20486;-65
2023/01/12 10:31:19;;;;;;;16.97;14.90;;;11.20;98.30;;;;;;6271879;28;20484;-64
2023/01/12 10:34:24;;;;;;;19.97;15.23;;;11.40;97.90;;;;;;6274372;28;20494;-65
2023/01/12 10:37:27;;;;;;;20.93;14.63;;;11.60;97.80;;;;;;6277708;28;20494;-64
2023/01/12 10:40:33;;;;;;;18.37;15.00;;;11.80;97.00;;;;;;6270104;28;20486;-64
2023/01/12 10:43:38;;;;;;;16.43;14.60;;;11.80;97.20;;;;;;6278693;28;20468;-64
2023/01/12 10:46:41;;;;;;;17.77;16.07;;;11.70;97.50;;;;;;6279367;28;20461;-63
2023/01/12 10:49:46;;;;;;;24.07;15.87;;;11.60;97.80;;;;;;6275068;28;20481;-63
2023/01/12 10:52:53;;;;;;;15.67;14.00;;;11.70;97.30;;;;;;6277303;28;20446;-63
2023/01/12 10:55:57;;;;;;;17.93;12.50;;;11.60;97.00;;;;;;6277540;28;20476;-64
2023/01/12 10:59:03;;;;;;;14.70;13.20;;;11.60;97.00;;;;;;6276981;28;20466;-63
2023/01/12 11:02:15;;;;;;;17.67;13.73;;;11.90;97.00;;;;;;6277586;28;20484;-64
2023/01/12 11:05:36;;;;;;;15.10;12.90;;;12.10;96.40;;;;;;6276885;28;20470;-65
2023/01/12 11:08:39;;;;;;;12.80;10.40;;;12.20;96.30;;;;;;6277085;28;20976;-62
2023/01/12 11:11:43;;;;;;;11.03;9.90;;;12.10;95.40;;;;;;6276940;28;20615;-63
2023/01/12 11:14:59;;;;;;;11.90;10.60;;;12.10;95.50;;;;;;6276660;28;20474;-64
2023/01/12 11:18:23;;;;;;;11.63;8.67;;;12.00;95.50;;;;;;6276426;28;20960;-64
2023/01/12 11:21:34;;;;;;;9.37;8.13;;;12.20;95.30;;;;;;6276518;28;20485;-63
2023/01/12 11:24:42;;;;;;;10.50;8.40;;;13.20;94.90;;;;;;6276516;28;20474;-63
2023/01/12 11:27:49;;;;;;;9.43;7.63;;;15.30;92.80;;;;;;6273029;28;20469;-63
2023/01/12 11:30:56;;;;;;;8.17;7.33;;;17.30;85.90;;;;;;6276239;28;20478;-64
2023/01/12 11:34:02;;;;;;;9.00;8.10;;;18.00;77.40;;;;;;6272823;28;20477;-62
2023/01/12 11:37:12;;;;;;;11.57;7.83;;;17.70;75.20;;;;;;6276274;28;20474;-61
2023/01/12 11:40:24;;;;;;;8.83;7.93;;;16.60;75.30;;;;;;6276271;28;20477;-61
2023/01/12 11:43:54;;;;;;;9.27;6.87;;;16.50;76.20;;;;;;6267320;28;20493;-61
2023/01/12 11:47:05;;;;;;;6.97;6.20;;;18.10;73.20;;;;;;6276069;28;20940;-62
2023/01/12 11:50:15;;;;;;;6.50;5.63;;;19.80;64.90;;;;;;6276751;28;20808;-62
2023/01/12 11:53:24;;;;;;;7.13;6.43;;;20.50;58.60;;;;;;6277681;28;20224;-62
2023/01/12 11:57:08;;;;;;;6.47;5.87;;;19.80;56.80;;;;;;6278285;28;20235;-61
2023/01/12 12:00:31;;;;;;;6.77;6.17;;;19.60;57.50;;;;;;6197112;28;20226;-61
2023/01/12 12:03:49;;;;;;;7.40;5.00;;;19.50;56.40;;;;;;6206247;28;20236;-62
2023/01/12 12:07:25;;;;;;;6.67;5.13;;;20.20;55.40;;;;;;6276750;28;20263;-62
2023/01/12 12:10:39;;;;;;;5.50;5.00;;;21.20;52.70;;;;;;6279315;28;20565;-62
2023/01/12 12:13:49;;;;;;;5.83;5.30;;;22.30;50.00;;;;;;6278286;28;20215;-62
2023/01/12 12:17:03;;;;;;;8.97;5.70;;;23.10;47.40;;;;;;6276612;28;20210;-63
2023/01/12 12:20:17;;;;;;;8.80;5.50;;;22.90;46.30;;;;;;6276361;28;20235;-65
2023/01/12 12:23:30;;;;;;;6.47;4.67;;;23.00;45.20;;;;;;6276623;28;20312;-61
2023/01/12 12:26:38;;;;;;;5.60;5.00;;;22.30;45.80;;;;;;6291624;28;20253;-62
2023/01/12 12:30:03;;;;;;;6.70;4.50;;;21.70;45.80;;;;;;6300391;28;20253;-62
2023/01/12 12:33:21;;;;;;;5.30;4.80;;;20.80;47.20;;;;;;6281406;28;20672;-61
2023/01/12 12:36:30;;;;;;;8.93;5.80;;;20.70;47.60;;;;;;6275910;28;20228;-63
2023/01/12 12:39:42;;;;;;;10.50;4.97;;;20.30;48.10;;;;;;6274896;28;20243;-61
2023/01/12 12:46:30;;;;;;;5.47;4.87;;;21.20;47.60;;;;;;6267275;28;20672;-62
2023/01/12 12:49:37;;;;;;;6.73;5.00;;;21.40;46.10;;;;;;6250185;28;20244;-62
2023/01/12 12:52:40;;;;;;;11.70;6.43;;;21.30;46.40;;;;;;6250080;28;20211;-62
2023/01/12 12:55:44;;;;;;;8.27;6.10;;;20.80;46.10;;;;;;6249919;28;20215;-62
2023/01/12 12:58:50;;;;;;;6.23;5.47;;;19.90;48.00;;;;;;6248910;28;20221;-62
2023/01/12 13:01:58;;;;;;;10.73;5.53;;;19.80;49.30;;;;;;6249893;28;20239;-61
2023/01/12 13:05:06;;;;;;;7.83;6.50;;;21.00;48.20;;;;;;6250565;28;20755;-62
2023/01/12 13:08:27;;;;;;;9.60;7.53;;;20.90;47.20;;;;;;6250133;28;20236;-61
2023/01/12 13:11:52;;;;;;;8.07;6.60;;;20.50;47.90;;;;;;6249220;28;20244;-61
2023/01/12 13:15:23;;;;;;;8.40;6.40;;;20.60;49.00;;;;;;6249498;28;20256;-61
2023/01/12 13:18:43;;;;;;;14.87;8.00;;;22.10;47.40;;;;;;6249720;28;20224;-61
2023/01/12 13:21:58;;;;;;;8.70;6.60;;;22.60;44.70;;;;;;6261005;28;20221;-61
2023/01/12 13:25:03;;;;;;;8.67;6.70;;;22.50;44.50;;;;;;6253546;28;20707;-61
2023/01/12 13:28:19;;;;;;;7.00;6.30;;;21.90;45.20;;;;;;6298500;28;20245;-61
2023/01/12 13:31:32;;;;;;;7.23;6.53;;;21.50;45.80;;;;;;6294415;28;20228;-61
2023/01/12 13:34:45;;;;;;;8.40;6.70;;;21.10;45.90;;;;;;6273304;28;20310;-61
2023/01/12 13:37:54;;;;;;;7.53;6.30;;;20.20;47.20;;;;;;6273363;28;20232;-61
2023/01/12 13:43:13;;;;;;;12.53;9.50;;;19.10;48.50;;;;;;6273350;28;20231;-63
2023/01/12 13:44:43;;;;;;;8.50;5.97;;;18.10;50.50;;;;;;6260425;28;20501;-61
2023/01/12 13:47:51;;;;;;;5.93;5.33;;;17.20;52.20;;;;;;6248892;28;20478;-61
2023/01/12 13:50:58;;;;;;;10.17;6.67;;;16.50;53.70;;;;;;6240658;28;21170;-60
2023/01/12 13:54:04;;;;;;;9.37;6.63;;;16.00;55.10;;;;;;6249884;28;21002;-61
2023/01/12 13:57:19;;;;;;;8.57;5.47;;;15.60;56.50;;;;;;6249627;28;20538;-61
2023/01/12 14:00:23;;;;;;;9.13;6.40;;;15.20;57.80;;;;;;6248924;28;20474;-62
2023/01/12 14:03:53;;;;;;;6.03;5.43;;;15.50;59.00;;;;;;6254211;28;20475;-60
2023/01/12 14:07:06;;;;;;;6.23;5.60;;;16.90;57.50;;;;;;6259553;28;20482;-62
2023/01/12 14:10:32;;;;;;;9.83;6.60;;;18.70;54.80;;;;;;6256875;28;20816;-62
2023/01/12 14:13:52;;;;;;;8.47;5.80;;;19.80;52.40;;;;;;6247692;28;20463;-61
2023/01/12 14:20:21;;;;;;;12.33;6.87;;;21.80;48.00;;;;;;6248162;28;20707;-60
2023/01/12 14:23:29;;;;;;;8.70;6.57;;;23.00;46.20;;;;;;6247782;28;20232;-61
2023/01/12 14:26:35;;;;;;;7.87;5.77;;;23.60;44.10;;;;;;6267545;28;20220;-62
2023/01/12 14:29:38;;;;;;;11.10;6.63;;;23.30;43.60;;;;;;6272681;28;20715;-63
2023/01/12 14:32:43;;;;;;;8.50;5.37;;;22.20;43.30;;;;;;6272764;28;20226;-63
2023/01/12 14:35:52;;;;;;;10.33;5.00;;;21.00;44.90;;;;;;6272739;28;20227;-62
2023/01/12 14:38:57;;;;;;;7.90;5.50;;;19.80;46.60;;;;;;6272279;28;20827;-63
2023/01/12 14:48:55;;;;;;;7.80;4.50;;;16.60;51.70;;;;;;6259886;28;20497;-62
2023/01/12 14:52:02;;;;;;;8.20;5.80;;;15.70;53.40;;;;;;6272495;28;20485;-63
2023/01/12 14:55:16;;;;;;;11.10;5.47;;;14.90;54.80;;;;;;6263348;28;20470;-63
2023/01/12 14:58:21;;;;;;;6.13;5.23;;;14.20;56.50;;;;;;6257747;28;20485;-63
2023/01/12 15:01:33;;;;;;;6.30;5.20;;;13.70;58.20;;;;;;6271484;28;20962;-63
2023/01/12 15:04:37;;;;;;;6.40;5.00;;;13.30;59.50;;;;;;6265080;28;20472;-62
2023/01/12 15:07:53;;;;;;;6.87;5.67;;;12.70;60.50;;;;;;6272284;28;20462;-63
2023/01/12 15:10:58;;;;;;;7.47;6.27;;;12.40;62.00;;;;;;6272337;28;20449;-64
2023/01/12 15:14:03;;;;;;;8.40;5.60;;;12.20;63.80;;;;;;6272317;28;20461;-65
2023/01/12 15:27:23;;;;;;;8.13;5.73;;;11.40;68.90;;;;;;6221066;28;20468;-63
2023/01/12 15:30:27;;;;;;;17.77;6.60;;;11.20;70.10;;;;;;6300376;28;20465;-63
2023/01/12 15:33:31;;;;;;;10.57;5.37;;;11.00;71.70;;;;;;6272870;28;20466;-64
2023/01/12 15:36:34;;;;;;;8.50;5.97;;;10.80;73.20;;;;;;6276675;28;20462;-64
2023/01/12 15:39:39;;;;;;;13.80;6.00;;;10.70;74.70;;;;;;6275760;28;20842;-65
2023/01/12 15:42:42;;;;;;;7.33;5.77;;;10.60;76.00;;;;;;6276070;28;21107;-65
2023/01/12 15:45:47;;;;;;;9.73;6.70;;;10.40;77.20;;;;;;6277739;28;20499;-63
2023/01/12 15:48:50;;;;;;;7.87;5.03;;;10.30;78.60;;;;;;6259518;28;20490;-64
2023/01/12 15:51:54;;;;;;;10.47;5.73;;;10.20;79.90;;;;;;6250833;28;20474;-64
2023/01/12 15:54:58;;;;;;;12.80;7.23;;;10.10;80.80;;;;;;6251045;28;20494;-64
2023/01/12 15:58:01;;;;;;;13.33;7.50;;;10.00;81.70;;;;;;6246709;28;20812;-64
2023/01/12 16:01:09;;;;;;;11.43;8.70;;;9.90;83.80;;;;;;6253611;28;20521;-65
2023/01/12 16:04:15;;;;;;;21.83;11.13;;;9.80;84.80;;;;;;6269298;28;20787;-66
2023/01/12 16:07:39;;;;;;;21.50;11.43;;;9.70;85.70;;;;;;6259738;28;20462;-65
2023/01/12 16:14:01;;;;;;;17.97;8.97;;;9.50;89.20;;;;;;6258537;28;20464;-66
2023/01/12 16:17:04;;;;;;;11.50;7.60;;;9.40;90.10;;;;;;6271971;28;21008;-66
2023/01/12 16:20:09;;;;;;;11.20;6.07;;;9.30;90.70;;;;;;6261254;28;20478;-65
2023/01/12 16:23:12;;;;;;;10.07;5.93;;;9.20;91.20;;;;;;6262842;28;20489;-66
2023/01/12 16:26:17;;;;;;;14.50;6.77;;;9.10;91.60;;;;;;6264915;28;20465;-65
2023/01/12 16:29:22;;;;;;;12.30;5.77;;;8.90;92.00;;;;;;6263155;28;20479;-66
2023/01/12 16:32:26;;;;;;;8.70;6.07;;;8.90;92.50;;;;;;6266479;28;20989;-66
2023/01/12 16:35:33;;;;;;;12.47;6.90;;;8.80;93.00;;;;;;6265920;28;20569;-66
2023/01/12 16:38:36;;;;;;;18.27;11.30;;;8.70;93.30;;;;;;6275231;28;21008;-65
2023/01/12 16:41:41;;;;;;;20.40;12.53;;;8.70;93.80;;;;;;6274296;28;20495;-66
2023/01/12 16:44:44;;;;;;;20.50;11.13;;;8.60;94.10;;;;;;6274653;28;20784;-65
2023/01/12 16:47:47;;;;;;;16.03;8.67;;;8.50;94.50;;;;;;6274810;28;20489;-65
2023/01/12 16:50:51;;;;;;;14.93;9.00;;;8.40;94.80;;;;;;6274391;28;20478;-65
2023/01/12 16:53:56;;;;;;;18.87;10.03;;;8.40;95.20;;;;;;6266000;28;20483;-65
2023/01/12 16:57:01;;;;;;;20.87;11.73;;;8.20;95.50;;;;;;6263058;28;20943;-66
2023/01/12 17:00:05;;;;;;;21.57;13.03;;;8.20;96.00;;;;;;6269512;28;20475;-64